sensor_id;sensor_type;location;lat;lon;timestamp;P1;durP1;ratioP1;P2;durP2;ratioP2
18689;SDS011;9782;52.930;15.562;2023-03-01T06:02:18;26.17;;;13.33;;
18689;SDS011;9782;52.930;15.562;2023-03-01T06:04:45;27.17;;;14.20;;
18689;SDS011;9782;52.930;15.562;2023-03-01T06:07:12;37.73;;;18.27;;
18689;SDS011;9782;52.930;15.562;2023-03-01T06:09:39;47.47;;;22.83;;
18689;SDS011;9782;52.930;15.562;2023-03-01T06:12:06;48.60;;;19.47;;
18689;SDS011;9782;52.930;15.562;2023-03-01T06:14:33;57.67;;;23.70;;
18689;SDS011;9782;52.930;15.562;2023-03-01T06:16:59;75.70;;;34.23;;
18689;SDS011;9782;52.930;15.562;2023-03-01T06:19:27;71.57;;;32.40;;
18689;SDS011;9782;52.930;15.562;2023-03-01T06:21:54;69.93;;;32.33;;
18689;SDS011;9782;52.930;15.562;2023-03-01T06:24:21;61.90;;;30.00;;
18689;SDS011;9782;52.930;15.562;2023-03-01T06:26:48;86.77;;;33.30;;
18689;SDS011;9782;52.930;15.562;2023-03-01T06:29:15;64.73;;;28.33;;
18689;SDS011;9782;52.930;15.562;2023-03-01T06:31:41;60.13;;;27.97;;
18689;SDS011;9782;52.930;15.562;2023-03-01T06:34:08;55.67;;;28.23;;
18689;SDS011;9782;52.930;15.562;2023-03-01T06:36:39;57.43;;;28.73;;
18689;SDS011;9782;52.930;15.562;2023-03-01T06:39:06;50.50;;;26.10;;
18689;SDS011;9782;52.930;15.562;2023-03-01T06:41:34;104.17;;;41.37;;
18689;SDS011;9782;52.930;15.562;2023-03-01T06:44:00;241.27;;;87.40;;
18689;SDS011;9782;52.930;15.562;2023-03-01T06:46:27;222.17;;;78.20;;
18689;SDS011;9782;52.930;15.562;2023-03-01T06:48:54;108.13;;;42.27;;
18689;SDS011;9782;52.930;15.562;2023-03-01T06:51:21;67.33;;;30.23;;
18689;SDS011;9782;52.930;15.562;2023-03-01T06:53:49;59.70;;;28.17;;
18689;SDS011;9782;52.930;15.562;2023-03-01T06:56:16;83.13;;;33.10;;
18689;SDS011;9782;52.930;15.562;2023-03-01T06:58:42;39.70;;;20.03;;
18689;SDS011;9782;52.930;15.562;2023-03-01T07:01:09;35.03;;;17.80;;
18689;SDS011;9782;52.930;15.562;2023-03-01T07:03:36;34.07;;;18.07;;
18689;SDS011;9782;52.930;15.562;2023-03-01T07:06:03;44.57;;;20.33;;
18689;SDS011;9782;52.930;15.562;2023-03-01T07:08:30;56.10;;;21.57;;
18689;SDS011;9782;52.930;15.562;2023-03-01T07:10:58;39.93;;;19.37;;
18689;SDS011;9782;52.930;15.562;2023-03-01T07:13:27;39.60;;;19.30;;
18689;SDS011;9782;52.930;15.562;2023-03-01T07:15:53;32.00;;;16.70;;
18689;SDS011;9782;52.930;15.562;2023-03-01T07:18:20;37.33;;;16.50;;
18689;SDS011;9782;52.930;15.562;2023-03-01T07:20:47;25.83;;;13.53;;
18689;SDS011;9782;52.930;15.562;2023-03-01T07:23:14;32.37;;;16.53;;
18689;SDS011;9782;52.930;15.562;2023-03-01T07:25:41;29.07;;;15.00;;
18689;SDS011;9782;52.930;15.562;2023-03-01T07:28:09;32.83;;;15.50;;
18689;SDS011;9782;52.930;15.562;2023-03-01T07:30:35;31.10;;;15.63;;
18689;SDS011;9782;52.930;15.562;2023-03-01T07:33:02;29.23;;;14.13;;
18689;SDS011;9782;52.930;15.562;2023-03-01T07:35:29;28.03;;;13.00;;
18689;SDS011;9782;52.930;15.562;2023-03-01T07:37:58;28.53;;;13.47;;
18689;SDS011;9782;52.930;15.562;2023-03-01T07:40:25;30.73;;;15.20;;
18689;SDS011;9782;52.930;15.562;2023-03-01T07:42:54;29.00;;;13.83;;
18689;SDS011;9782;52.930;15.562;2023-03-01T07:45:24;24.20;;;13.70;;
18689;SDS011;9782;52.930;15.562;2023-03-01T07:47:51;41.40;;;21.03;;
18689;SDS011;9782;52.930;15.562;2023-03-01T07:50:18;62.93;;;29.43;;
18689;SDS011;9782;52.930;15.562;2023-03-01T07:52:45;39.17;;;18.57;;
18689;SDS011;9782;52.930;15.562;2023-03-01T07:55:12;30.77;;;14.60;;
18689;SDS011;9782;52.930;15.562;2023-03-01T07:57:39;28.57;;;14.43;;
18689;SDS011;9782;52.930;15.562;2023-03-01T08:00:06;25.70;;;13.20;;
18689;SDS011;9782;52.930;15.562;2023-03-01T08:02:36;18.33;;;9.60;;
18689;SDS011;9782;52.930;15.562;2023-03-01T08:05:04;19.43;;;10.23;;
18689;SDS011;9782;52.930;15.562;2023-03-01T08:07:31;29.33;;;15.30;;
18689;SDS011;9782;52.930;15.562;2023-03-01T08:09:58;20.10;;;11.57;;
18689;SDS011;9782;52.930;15.562;2023-03-01T08:12:25;53.40;;;24.70;;
18689;SDS011;9782;52.930;15.562;2023-03-01T08:14:53;123.83;;;45.57;;
18689;SDS011;9782;52.930;15.562;2023-03-01T08:17:19;21.67;;;10.97;;
18689;SDS011;9782;52.930;15.562;2023-03-01T08:19:48;18.97;;;9.63;;
18689;SDS011;9782;52.930;15.562;2023-03-01T08:22:14;16.57;;;9.60;;
18689;SDS011;9782;52.930;15.562;2023-03-01T08:24:41;14.80;;;7.00;;
18689;SDS011;9782;52.930;15.562;2023-03-01T08:27:08;11.73;;;6.87;;
18689;SDS011;9782;52.930;15.562;2023-03-01T08:29:37;11.17;;;6.90;;
18689;SDS011;9782;52.930;15.562;2023-03-01T08:32:04;20.53;;;9.00;;
18689;SDS011;9782;52.930;15.562;2023-03-01T08:34:30;14.13;;;7.70;;
18689;SDS011;9782;52.930;15.562;2023-03-01T08:37:01;14.90;;;7.43;;
18689;SDS011;9782;52.930;15.562;2023-03-01T08:39:28;10.73;;;6.50;;
18689;SDS011;9782;52.930;15.562;2023-03-01T08:41:55;19.50;;;9.97;;
18689;SDS011;9782;52.930;15.562;2023-03-01T08:44:23;15.03;;;7.10;;
18689;SDS011;9782;52.930;15.562;2023-03-01T08:46:50;13.13;;;6.53;;
18689;SDS011;9782;52.930;15.562;2023-03-01T08:49:18;13.93;;;7.47;;
18689;SDS011;9782;52.930;15.562;2023-03-01T08:51:46;16.07;;;7.43;;
18689;SDS011;9782;52.930;15.562;2023-03-01T08:54:15;13.63;;;6.60;;
18689;SDS011;9782;52.930;15.562;2023-03-01T08:56:44;13.80;;;6.70;;
18689;SDS011;9782;52.930;15.562;2023-03-01T08:59:11;12.80;;;6.30;;
18689;SDS011;9782;52.930;15.562;2023-03-01T09:01:39;10.50;;;5.87;;
18689;SDS011;9782;52.930;15.562;2023-03-01T09:04:08;10.73;;;6.43;;
18689;SDS011;9782;52.930;15.562;2023-03-01T09:06:35;10.77;;;5.47;;
18689;SDS011;9782;52.930;15.562;2023-03-01T09:09:02;8.60;;;5.27;;
18689;SDS011;9782;52.930;15.562;2023-03-01T09:11:31;19.20;;;11.00;;
18689;SDS011;9782;52.930;15.562;2023-03-01T09:13:58;9.77;;;5.60;;
18689;SDS011;9782;52.930;15.562;2023-03-01T09:16:25;8.60;;;4.50;;
18689;SDS011;9782;52.930;15.562;2023-03-01T09:18:52;22.23;;;11.50;;
18689;SDS011;9782;52.930;15.562;2023-03-01T09:21:21;20.53;;;10.87;;
18689;SDS011;9782;52.930;15.562;2023-03-01T09:23:49;13.17;;;7.40;;
18689;SDS011;9782;52.930;15.562;2023-03-01T09:26:17;35.20;;;24.20;;
18689;SDS011;9782;52.930;15.562;2023-03-01T09:28:47;28.30;;;17.33;;
18689;SDS011;9782;52.930;15.562;2023-03-01T09:31:15;17.57;;;9.53;;
18689;SDS011;9782;52.930;15.562;2023-03-01T09:33:45;27.57;;;15.93;;
18689;SDS011;9782;52.930;15.562;2023-03-01T09:36:14;25.73;;;14.87;;
18689;SDS011;9782;52.930;15.562;2023-03-01T09:38:42;16.70;;;8.03;;
18689;SDS011;9782;52.930;15.562;2023-03-01T09:41:10;33.97;;;13.03;;
18689;SDS011;9782;52.930;15.562;2023-03-01T09:43:45;24.43;;;13.20;;
18689;SDS011;9782;52.930;15.562;2023-03-01T09:46:19;17.47;;;8.27;;
18689;SDS011;9782;52.930;15.562;2023-03-01T09:48:48;26.83;;;14.27;;
18689;SDS011;9782;52.930;15.562;2023-03-01T09:51:19;96.83;;;29.07;;
18689;SDS011;9782;52.930;15.562;2023-03-01T09:53:52;78.60;;;27.67;;
18689;SDS011;9782;52.930;15.562;2023-03-01T09:56:22;60.87;;;23.90;;
18689;SDS011;9782;52.930;15.562;2023-03-01T09:58:58;61.57;;;27.37;;
18689;SDS011;9782;52.930;15.562;2023-03-01T10:01:38;83.90;;;36.13;;
18689;SDS011;9782;52.930;15.562;2023-03-01T10:04:22;30.63;;;14.47;;
18689;SDS011;9782;52.930;15.562;2023-03-01T10:07:02;197.20;;;62.83;;
18689;SDS011;9782;52.930;15.562;2023-03-01T10:09:39;138.13;;;51.97;;
18689;SDS011;9782;52.930;15.562;2023-03-01T10:12:08;46.90;;;23.30;;
18689;SDS011;9782;52.930;15.562;2023-03-01T10:14:39;23.57;;;11.80;;
18689;SDS011;9782;52.930;15.562;2023-03-01T10:17:17;10.17;;;5.70;;
18689;SDS011;9782;52.930;15.562;2023-03-01T10:19:50;14.33;;;6.57;;
18689;SDS011;9782;52.930;15.562;2023-03-01T10:22:17;19.50;;;9.03;;
18689;SDS011;9782;52.930;15.562;2023-03-01T10:24:47;28.57;;;15.27;;
18689;SDS011;9782;52.930;15.562;2023-03-01T10:27:17;15.40;;;9.10;;
18689;SDS011;9782;52.930;15.562;2023-03-01T10:29:50;37.10;;;18.20;;
18689;SDS011;9782;52.930;15.562;2023-03-01T10:32:24;28.17;;;14.57;;
18689;SDS011;9782;52.930;15.562;2023-03-01T10:34:52;14.50;;;8.23;;
18689;SDS011;9782;52.930;15.562;2023-03-01T10:37:19;119.40;;;72.90;;
18689;SDS011;9782;52.930;15.562;2023-03-01T10:39:57;23.67;;;14.27;;
18689;SDS011;9782;52.930;15.562;2023-03-01T10:42:28;33.43;;;19.50;;
18689;SDS011;9782;52.930;15.562;2023-03-01T10:44:59;16.03;;;10.20;;
18689;SDS011;9782;52.930;15.562;2023-03-01T10:47:41;16.60;;;10.07;;
18689;SDS011;9782;52.930;15.562;2023-03-01T10:50:17;17.77;;;9.73;;
18689;SDS011;9782;52.930;15.562;2023-03-01T10:52:55;17.47;;;10.53;;
18689;SDS011;9782;52.930;15.562;2023-03-01T10:55:24;17.27;;;9.33;;
18689;SDS011;9782;52.930;15.562;2023-03-01T10:58:06;17.97;;;9.80;;
18689;SDS011;9782;52.930;15.562;2023-03-01T11:00:36;19.67;;;9.90;;
18689;SDS011;9782;52.930;15.562;2023-03-01T11:03:13;23.40;;;7.93;;
18689;SDS011;9782;52.930;15.562;2023-03-01T11:08:31;17.70;;;10.20;;
18689;SDS011;9782;52.930;15.562;2023-03-01T11:11:06;30.33;;;20.60;;
18689;SDS011;9782;52.930;15.562;2023-03-01T11:13:47;19.63;;;10.00;;
18689;SDS011;9782;52.930;15.562;2023-03-01T11:16:23;24.50;;;14.67;;
18689;SDS011;9782;52.930;15.562;2023-03-01T11:18:56;21.70;;;11.93;;
18689;SDS011;9782;52.930;15.562;2023-03-01T11:21:24;22.80;;;14.70;;
18689;SDS011;9782;52.930;15.562;2023-03-01T11:23:54;15.70;;;9.10;;
18689;SDS011;9782;52.930;15.562;2023-03-01T11:26:21;22.50;;;10.63;;
18689;SDS011;9782;52.930;15.562;2023-03-01T11:28:49;20.77;;;9.77;;
18689;SDS011;9782;52.930;15.562;2023-03-01T11:31:19;21.27;;;13.27;;
18689;SDS011;9782;52.930;15.562;2023-03-01T11:33:49;18.33;;;9.80;;
18689;SDS011;9782;52.930;15.562;2023-03-01T11:36:26;20.27;;;10.80;;
18689;SDS011;9782;52.930;15.562;2023-03-01T11:38:57;21.03;;;12.13;;
18689;SDS011;9782;52.930;15.562;2023-03-01T11:41:30;31.43;;;14.30;;
18689;SDS011;9782;52.930;15.562;2023-03-01T11:44:00;17.67;;;10.13;;
18689;SDS011;9782;52.930;15.562;2023-03-01T11:46:49;16.83;;;8.80;;
18689;SDS011;9782;52.930;15.562;2023-03-01T11:49:42;16.70;;;7.40;;
18689;SDS011;9782;52.930;15.562;2023-03-01T11:52:26;24.50;;;11.83;;
18689;SDS011;9782;52.930;15.562;2023-03-01T11:55:08;25.03;;;12.87;;
18689;SDS011;9782;52.930;15.562;2023-03-01T11:57:49;47.40;;;22.53;;
18689;SDS011;9782;52.930;15.562;2023-03-01T12:00:41;19.50;;;9.83;;
18689;SDS011;9782;52.930;15.562;2023-03-01T12:03:23;19.77;;;10.50;;
18689;SDS011;9782;52.930;15.562;2023-03-01T12:09:09;36.03;;;17.80;;
18689;SDS011;9782;52.930;15.562;2023-03-01T12:11:50;13.57;;;8.80;;
18689;SDS011;9782;52.930;15.562;2023-03-01T12:14:31;14.87;;;9.03;;
18689;SDS011;9782;52.930;15.562;2023-03-01T12:17:19;13.93;;;8.23;;
18689;SDS011;9782;52.930;15.562;2023-03-01T12:20:07;18.23;;;11.30;;
18689;SDS011;9782;52.930;15.562;2023-03-01T12:22:47;20.87;;;10.77;;
18689;SDS011;9782;52.930;15.562;2023-03-01T12:25:27;17.00;;;10.37;;
18689;SDS011;9782;52.930;15.562;2023-03-01T12:28:05;13.70;;;7.93;;
18689;SDS011;9782;52.930;15.562;2023-03-01T12:30:49;23.23;;;13.40;;
18689;SDS011;9782;52.930;15.562;2023-03-01T12:33:33;13.03;;;7.40;;
18689;SDS011;9782;52.930;15.562;2023-03-01T12:36:13;12.93;;;7.80;;
18689;SDS011;9782;52.930;15.562;2023-03-01T12:39:02;15.47;;;9.07;;
18689;SDS011;9782;52.930;15.562;2023-03-01T12:41:43;13.57;;;7.43;;
18689;SDS011;9782;52.930;15.562;2023-03-01T12:47:11;11.17;;;6.97;;
18689;SDS011;9782;52.930;15.562;2023-03-01T12:49:47;11.63;;;7.60;;
18689;SDS011;9782;52.930;15.562;2023-03-01T12:52:19;13.83;;;8.00;;
18689;SDS011;9782;52.930;15.562;2023-03-01T12:54:54;15.63;;;8.77;;
18689;SDS011;9782;52.930;15.562;2023-03-01T12:57:25;13.07;;;6.27;;
18689;SDS011;9782;52.930;15.562;2023-03-01T13:00:03;11.10;;;6.27;;
18689;SDS011;9782;52.930;15.562;2023-03-01T13:02:45;11.57;;;7.37;;
18689;SDS011;9782;52.930;15.562;2023-03-01T13:05:23;10.90;;;6.40;;
18689;SDS011;9782;52.930;15.562;2023-03-01T13:07:55;12.00;;;6.87;;
18689;SDS011;9782;52.930;15.562;2023-03-01T13:10:33;13.73;;;5.93;;
18689;SDS011;9782;52.930;15.562;2023-03-01T13:13:12;9.80;;;6.80;;
18689;SDS011;9782;52.930;15.562;2023-03-01T13:15:44;12.77;;;6.53;;
18689;SDS011;9782;52.930;15.562;2023-03-01T13:18:29;9.53;;;7.10;;
18689;SDS011;9782;52.930;15.562;2023-03-01T13:20:58;13.80;;;6.43;;
18689;SDS011;9782;52.930;15.562;2023-03-01T13:23:28;12.90;;;6.80;;
18689;SDS011;9782;52.930;15.562;2023-03-01T13:26:01;11.73;;;7.03;;
18689;SDS011;9782;52.930;15.562;2023-03-01T13:34:41;11.63;;;6.50;;
18689;SDS011;9782;52.930;15.562;2023-03-01T13:37:10;9.50;;;6.37;;
18689;SDS011;9782;52.930;15.562;2023-03-01T13:39:44;13.97;;;6.50;;
18689;SDS011;9782;52.930;15.562;2023-03-01T13:45:13;11.87;;;6.93;;
18689;SDS011;9782;52.930;15.562;2023-03-01T13:47:44;12.07;;;7.27;;
18689;SDS011;9782;52.930;15.562;2023-03-01T13:50:16;13.17;;;6.97;;
18689;SDS011;9782;52.930;15.562;2023-03-01T13:52:47;14.83;;;8.20;;
18689;SDS011;9782;52.930;15.562;2023-03-01T13:55:19;20.10;;;10.87;;
18689;SDS011;9782;52.930;15.562;2023-03-01T13:57:51;14.97;;;8.80;;
18689;SDS011;9782;52.930;15.562;2023-03-01T14:00:26;22.20;;;11.33;;
18689;SDS011;9782;52.930;15.562;2023-03-01T14:03:10;27.70;;;14.70;;
18689;SDS011;9782;52.930;15.562;2023-03-01T14:05:39;13.77;;;8.00;;
18689;SDS011;9782;52.930;15.562;2023-03-01T14:08:18;11.93;;;7.30;;
18689;SDS011;9782;52.930;15.562;2023-03-01T14:10:49;22.67;;;11.57;;
18689;SDS011;9782;52.930;15.562;2023-03-01T14:13:30;13.77;;;8.17;;
18689;SDS011;9782;52.930;15.562;2023-03-01T14:16:12;37.27;;;21.57;;
18689;SDS011;9782;52.930;15.562;2023-03-01T14:19:01;12.33;;;7.10;;
18689;SDS011;9782;52.930;15.562;2023-03-01T14:21:41;14.23;;;7.97;;
18689;SDS011;9782;52.930;15.562;2023-03-01T14:24:15;25.80;;;12.20;;
18689;SDS011;9782;52.930;15.562;2023-03-01T14:26:43;22.40;;;11.90;;
18689;SDS011;9782;52.930;15.562;2023-03-01T14:29:24;15.53;;;7.57;;
18689;SDS011;9782;52.930;15.562;2023-03-01T14:32:08;13.40;;;7.37;;
18689;SDS011;9782;52.930;15.562;2023-03-01T14:34:36;52.37;;;23.57;;
18689;SDS011;9782;52.930;15.562;2023-03-01T14:37:09;30.67;;;15.90;;
18689;SDS011;9782;52.930;15.562;2023-03-01T14:39:37;21.70;;;11.63;;
18689;SDS011;9782;52.930;15.562;2023-03-01T14:42:04;30.43;;;15.23;;
18689;SDS011;9782;52.930;15.562;2023-03-01T14:44:32;28.20;;;12.93;;
18689;SDS011;9782;52.930;15.562;2023-03-01T14:47:02;16.03;;;8.63;;
18689;SDS011;9782;52.930;15.562;2023-03-01T14:49:30;14.87;;;8.90;;
18689;SDS011;9782;52.930;15.562;2023-03-01T14:51:59;19.63;;;8.90;;
18689;SDS011;9782;52.930;15.562;2023-03-01T14:54:29;13.93;;;7.53;;
18689;SDS011;9782;52.930;15.562;2023-03-01T14:57:02;15.53;;;9.30;;
18689;SDS011;9782;52.930;15.562;2023-03-01T14:59:29;16.40;;;7.90;;
18689;SDS011;9782;52.930;15.562;2023-03-01T15:02:00;15.47;;;9.37;;
18689;SDS011;9782;52.930;15.562;2023-03-01T15:04:27;14.67;;;8.83;;
18689;SDS011;9782;52.930;15.562;2023-03-01T15:06:56;15.67;;;8.80;;
18689;SDS011;9782;52.930;15.562;2023-03-01T15:09:29;14.13;;;8.80;;
18689;SDS011;9782;52.930;15.562;2023-03-01T15:11:58;14.10;;;8.67;;
18689;SDS011;9782;52.930;15.562;2023-03-01T15:14:28;15.07;;;9.40;;
18689;SDS011;9782;52.930;15.562;2023-03-01T15:17:15;14.70;;;7.90;;
18689;SDS011;9782;52.930;15.562;2023-03-01T15:19:49;12.40;;;8.07;;
18689;SDS011;9782;52.930;15.562;2023-03-01T15:22:16;10.30;;;6.80;;
18689;SDS011;9782;52.930;15.562;2023-03-01T15:24:46;13.07;;;8.00;;
18689;SDS011;9782;52.930;15.562;2023-03-01T15:27:14;13.80;;;7.43;;
18689;SDS011;9782;52.930;15.562;2023-03-01T15:29:47;14.00;;;8.03;;
18689;SDS011;9782;52.930;15.562;2023-03-01T15:32:27;13.67;;;8.63;;
18689;SDS011;9782;52.930;15.562;2023-03-01T15:34:55;13.10;;;8.73;;
18689;SDS011;9782;52.930;15.562;2023-03-01T15:37:36;16.00;;;8.80;;
18689;SDS011;9782;52.930;15.562;2023-03-01T15:40:22;13.20;;;8.27;;
18689;SDS011;9782;52.930;15.562;2023-03-01T15:42:56;12.73;;;8.03;;
18689;SDS011;9782;52.930;15.562;2023-03-01T15:45:23;14.57;;;8.10;;
18689;SDS011;9782;52.930;15.562;2023-03-01T15:47:54;11.67;;;7.70;;
18689;SDS011;9782;52.930;15.562;2023-03-01T15:50:24;13.47;;;7.87;;
18689;SDS011;9782;52.930;15.562;2023-03-01T15:52:52;14.40;;;8.20;;
18689;SDS011;9782;52.930;15.562;2023-03-01T15:55:20;14.63;;;8.57;;
18689;SDS011;9782;52.930;15.562;2023-03-01T15:57:48;15.53;;;8.77;;
18689;SDS011;9782;52.930;15.562;2023-03-01T16:00:16;22.67;;;9.93;;
18689;SDS011;9782;52.930;15.562;2023-03-01T16:02:43;13.83;;;8.97;;
18689;SDS011;9782;52.930;15.562;2023-03-01T16:05:16;16.73;;;9.90;;
18689;SDS011;9782;52.930;15.562;2023-03-01T16:07:48;16.03;;;10.17;;
18689;SDS011;9782;52.930;15.562;2023-03-01T16:10:15;16.87;;;9.13;;
18689;SDS011;9782;52.930;15.562;2023-03-01T16:12:42;17.00;;;9.10;;
18689;SDS011;9782;52.930;15.562;2023-03-01T16:15:11;20.00;;;11.20;;
18689;SDS011;9782;52.930;15.562;2023-03-01T16:17:43;25.03;;;13.70;;
18689;SDS011;9782;52.930;15.562;2023-03-01T16:20:10;22.80;;;11.30;;
18689;SDS011;9782;52.930;15.562;2023-03-01T16:22:38;21.63;;;10.43;;
18689;SDS011;9782;52.930;15.562;2023-03-01T16:25:06;18.00;;;9.03;;
18689;SDS011;9782;52.930;15.562;2023-03-01T16:27:34;21.80;;;9.73;;
18689;SDS011;9782;52.930;15.562;2023-03-01T16:30:01;25.00;;;9.57;;
18689;SDS011;9782;52.930;15.562;2023-03-01T16:32:29;19.23;;;9.80;;
18689;SDS011;9782;52.930;15.562;2023-03-01T16:34:56;22.40;;;11.03;;
18689;SDS011;9782;52.930;15.562;2023-03-01T16:37:22;22.53;;;11.83;;
18689;SDS011;9782;52.930;15.562;2023-03-01T16:39:50;20.20;;;10.30;;
18689;SDS011;9782;52.930;15.562;2023-03-01T16:42:18;16.97;;;8.77;;
18689;SDS011;9782;52.930;15.562;2023-03-01T16:44:44;15.60;;;8.67;;
18689;SDS011;9782;52.930;15.562;2023-03-01T16:47:11;15.53;;;8.80;;
18689;SDS011;9782;52.930;15.562;2023-03-01T16:49:38;21.80;;;9.43;;
18689;SDS011;9782;52.930;15.562;2023-03-01T16:52:04;15.50;;;7.93;;
18689;SDS011;9782;52.930;15.562;2023-03-01T16:54:31;15.30;;;8.17;;
18689;SDS011;9782;52.930;15.562;2023-03-01T16:56:59;13.57;;;8.40;;
18689;SDS011;9782;52.930;15.562;2023-03-01T16:59:26;13.97;;;8.10;;
18689;SDS011;9782;52.930;15.562;2023-03-01T17:01:53;14.10;;;8.17;;
18689;SDS011;9782;52.930;15.562;2023-03-01T17:04:20;18.90;;;9.33;;
18689;SDS011;9782;52.930;15.562;2023-03-01T17:06:46;17.73;;;9.30;;
18689;SDS011;9782;52.930;15.562;2023-03-01T17:09:13;14.57;;;8.67;;
18689;SDS011;9782;52.930;15.562;2023-03-01T17:11:41;15.40;;;8.47;;
18689;SDS011;9782;52.930;15.562;2023-03-01T17:14:09;14.13;;;8.83;;
18689;SDS011;9782;52.930;15.562;2023-03-01T17:16:36;13.53;;;8.67;;
18689;SDS011;9782;52.930;15.562;2023-03-01T17:19:03;17.20;;;10.13;;
18689;SDS011;9782;52.930;15.562;2023-03-01T17:21:30;27.70;;;12.07;;
18689;SDS011;9782;52.930;15.562;2023-03-01T17:23:57;24.30;;;12.73;;
18689;SDS011;9782;52.930;15.562;2023-03-01T17:26:24;24.30;;;13.40;;
18689;SDS011;9782;52.930;15.562;2023-03-01T17:28:53;21.37;;;12.50;;
18689;SDS011;9782;52.930;15.562;2023-03-01T17:31:21;23.10;;;14.17;;
18689;SDS011;9782;52.930;15.562;2023-03-01T17:33:48;27.17;;;16.03;;
18689;SDS011;9782;52.930;15.562;2023-03-01T17:36:16;31.77;;;18.53;;
18689;SDS011;9782;52.930;15.562;2023-03-01T17:38:43;32.63;;;18.53;;
18689;SDS011;9782;52.930;15.562;2023-03-01T17:41:10;32.83;;;16.80;;
18689;SDS011;9782;52.930;15.562;2023-03-01T17:43:38;36.13;;;18.10;;
18689;SDS011;9782;52.930;15.562;2023-03-01T17:46:05;29.80;;;16.23;;
18689;SDS011;9782;52.930;15.562;2023-03-01T17:48:33;33.87;;;17.77;;
18689;SDS011;9782;52.930;15.562;2023-03-01T17:51:04;31.97;;;16.73;;
18689;SDS011;9782;52.930;15.562;2023-03-01T17:53:32;25.67;;;14.37;;
18689;SDS011;9782;52.930;15.562;2023-03-01T17:55:59;29.23;;;15.43;;
18689;SDS011;9782;52.930;15.562;2023-03-01T17:58:27;27.93;;;14.63;;
18689;SDS011;9782;52.930;15.562;2023-03-01T18:00:54;28.63;;;16.07;;
18689;SDS011;9782;52.930;15.562;2023-03-01T18:03:21;57.50;;;27.97;;
18689;SDS011;9782;52.930;15.562;2023-03-01T18:05:49;37.80;;;19.73;;
18689;SDS011;9782;52.930;15.562;2023-03-01T18:08:16;26.93;;;15.50;;
18689;SDS011;9782;52.930;15.562;2023-03-01T18:10:43;34.43;;;17.83;;
18689;SDS011;9782;52.930;15.562;2023-03-01T18:13:09;31.17;;;17.67;;
18689;SDS011;9782;52.930;15.562;2023-03-01T18:15:38;32.33;;;17.70;;
18689;SDS011;9782;52.930;15.562;2023-03-01T18:18:05;35.27;;;21.17;;
18689;SDS011;9782;52.930;15.562;2023-03-01T18:20:32;35.30;;;19.87;;
18689;SDS011;9782;52.930;15.562;2023-03-01T18:23:00;53.53;;;33.00;;
18689;SDS011;9782;52.930;15.562;2023-03-01T18:25:27;45.20;;;32.50;;
18689;SDS011;9782;52.930;15.562;2023-03-01T18:27:54;42.17;;;27.97;;
18689;SDS011;9782;52.930;15.562;2023-03-01T18:30:21;32.93;;;19.87;;
18689;SDS011;9782;52.930;15.562;2023-03-01T18:32:48;30.77;;;17.40;;
18689;SDS011;9782;52.930;15.562;2023-03-01T18:35:20;32.47;;;15.63;;
18689;SDS011;9782;52.930;15.562;2023-03-01T18:37:47;28.17;;;15.13;;
18689;SDS011;9782;52.930;15.562;2023-03-01T18:40:16;28.20;;;15.40;;
18689;SDS011;9782;52.930;15.562;2023-03-01T18:42:43;25.63;;;14.37;;
18689;SDS011;9782;52.930;15.562;2023-03-01T18:45:10;28.67;;;14.30;;
18689;SDS011;9782;52.930;15.562;2023-03-01T18:47:38;27.60;;;15.13;;
18689;SDS011;9782;52.930;15.562;2023-03-01T18:50:05;30.60;;;16.53;;
18689;SDS011;9782;52.930;15.562;2023-03-01T18:52:33;33.13;;;16.87;;
18689;SDS011;9782;52.930;15.562;2023-03-01T18:54:59;33.80;;;18.77;;
18689;SDS011;9782;52.930;15.562;2023-03-01T18:57:28;40.03;;;24.40;;
18689;SDS011;9782;52.930;15.562;2023-03-01T18:59:55;36.97;;;20.73;;
18689;SDS011;9782;52.930;15.562;2023-03-01T19:02:21;34.63;;;19.07;;
18689;SDS011;9782;52.930;15.562;2023-03-01T19:04:48;38.70;;;19.57;;
18689;SDS011;9782;52.930;15.562;2023-03-01T19:07:15;36.70;;;19.67;;
18689;SDS011;9782;52.930;15.562;2023-03-01T19:09:42;34.33;;;18.70;;
18689;SDS011;9782;52.930;15.562;2023-03-01T19:12:09;35.70;;;18.43;;
18689;SDS011;9782;52.930;15.562;2023-03-01T19:14:37;35.27;;;18.57;;
18689;SDS011;9782;52.930;15.562;2023-03-01T19:17:04;31.50;;;17.20;;
18689;SDS011;9782;52.930;15.562;2023-03-01T19:19:31;38.60;;;24.37;;
18689;SDS011;9782;52.930;15.562;2023-03-01T19:21:59;40.37;;;21.73;;
18689;SDS011;9782;52.930;15.562;2023-03-01T19:24:26;35.13;;;20.10;;
18689;SDS011;9782;52.930;15.562;2023-03-01T19:26:54;34.10;;;19.80;;
18689;SDS011;9782;52.930;15.562;2023-03-01T19:29:21;48.60;;;25.63;;
18689;SDS011;9782;52.930;15.562;2023-03-01T19:31:49;42.77;;;23.97;;
18689;SDS011;9782;52.930;15.562;2023-03-01T19:34:16;64.67;;;28.90;;
18689;SDS011;9782;52.930;15.562;2023-03-01T19:36:43;74.47;;;33.10;;
18689;SDS011;9782;52.930;15.562;2023-03-01T19:39:12;48.83;;;25.73;;
18689;SDS011;9782;52.930;15.562;2023-03-01T19:41:39;56.03;;;25.30;;
18689;SDS011;9782;52.930;15.562;2023-03-01T19:44:07;59.83;;;29.33;;
18689;SDS011;9782;52.930;15.562;2023-03-01T19:46:34;61.83;;;26.40;;
18689;SDS011;9782;52.930;15.562;2023-03-01T19:49:03;64.77;;;27.90;;
18689;SDS011;9782;52.930;15.562;2023-03-01T19:51:31;43.63;;;23.83;;
18689;SDS011;9782;52.930;15.562;2023-03-01T19:54:00;45.20;;;26.07;;
18689;SDS011;9782;52.930;15.562;2023-03-01T19:56:27;40.47;;;23.13;;
18689;SDS011;9782;52.930;15.562;2023-03-01T19:58:55;72.43;;;38.33;;
18689;SDS011;9782;52.930;15.562;2023-03-01T20:01:25;42.57;;;23.57;;
18689;SDS011;9782;52.930;15.562;2023-03-01T20:03:53;41.63;;;24.20;;
18689;SDS011;9782;52.930;15.562;2023-03-01T20:06:21;40.03;;;24.67;;
18689;SDS011;9782;52.930;15.562;2023-03-01T20:08:50;45.33;;;24.57;;
18689;SDS011;9782;52.930;15.562;2023-03-01T20:11:17;52.03;;;28.77;;
18689;SDS011;9782;52.930;15.562;2023-03-01T20:13:45;57.50;;;31.47;;
18689;SDS011;9782;52.930;15.562;2023-03-01T20:16:12;73.97;;;44.33;;
18689;SDS011;9782;52.930;15.562;2023-03-01T20:18:41;64.17;;;34.93;;
18689;SDS011;9782;52.930;15.562;2023-03-01T20:21:08;64.70;;;32.53;;
18689;SDS011;9782;52.930;15.562;2023-03-01T20:23:37;56.50;;;30.20;;
18689;SDS011;9782;52.930;15.562;2023-03-01T20:26:05;59.33;;;31.30;;
18689;SDS011;9782;52.930;15.562;2023-03-01T20:28:33;59.00;;;31.27;;
18689;SDS011;9782;52.930;15.562;2023-03-01T20:31:02;53.77;;;31.07;;
18689;SDS011;9782;52.930;15.562;2023-03-01T20:33:29;58.70;;;30.73;;
18689;SDS011;9782;52.930;15.562;2023-03-01T20:35:56;53.50;;;30.43;;
18689;SDS011;9782;52.930;15.562;2023-03-01T20:38:23;50.80;;;29.03;;
18689;SDS011;9782;52.930;15.562;2023-03-01T20:40:56;53.87;;;28.63;;
18689;SDS011;9782;52.930;15.562;2023-03-01T20:43:24;56.30;;;29.90;;
18689;SDS011;9782;52.930;15.562;2023-03-01T20:45:50;54.90;;;29.50;;
18689;SDS011;9782;52.930;15.562;2023-03-01T20:48:17;55.80;;;28.40;;
18689;SDS011;9782;52.930;15.562;2023-03-01T20:50:44;48.97;;;26.87;;
18689;SDS011;9782;52.930;15.562;2023-03-01T20:53:11;45.17;;;27.03;;
18689;SDS011;9782;52.930;15.562;2023-03-01T20:55:37;46.07;;;24.67;;
18689;SDS011;9782;52.930;15.562;2023-03-01T20:58:06;46.63;;;24.47;;
18689;SDS011;9782;52.930;15.562;2023-03-01T21:00:33;48.10;;;23.80;;
18689;SDS011;9782;52.930;15.562;2023-03-01T21:03:00;41.17;;;23.47;;